createdAt,value
2022-09-25T00:03:52.942Z,6.38
2022-09-25T00:08:56.819Z,6.03
2022-09-25T00:14:02.162Z,6.78
2022-09-25T00:19:22.603Z,6.28
2022-09-25T00:24:25.310Z,6.93
2022-09-25T00:29:30.466Z,6.50
2022-09-25T00:34:33.362Z,6.35
2022-09-25T00:39:35.996Z,7.95
2022-09-25T00:44:56.439Z,8.23
2022-09-25T00:49:59.970Z,7.38
2022-09-25T00:55:05.264Z,6.93
2022-09-25T01:00:12.655Z,6.68
2022-09-25T01:05:17.752Z,7.05
2022-09-25T01:10:21.774Z,5.97
2022-09-25T01:15:30.718Z,6.03
2022-09-25T01:20:56.365Z,5.90
2022-09-25T01:26:15.445Z,6.05
2022-09-25T01:31:26.179Z,5.53
2022-09-25T01:36:30.661Z,6.00
2022-09-25T01:41:36.925Z,5.03
2022-09-25T01:46:44.025Z,5.95
2022-09-25T01:51:49.443Z,5.35
2022-09-25T01:56:56.670Z,5.75
2022-09-25T02:02:02.650Z,4.93
2022-09-25T02:07:09.947Z,5.53
2022-09-25T02:12:15.323Z,5.22
2022-09-25T02:17:38.106Z,5.65
2022-09-25T02:22:40.751Z,5.60
2022-09-25T02:27:43.867Z,5.90
2022-09-25T02:32:47.799Z,6.15
2022-09-25T02:37:50.427Z,5.65
2022-09-25T02:42:59.626Z,5.07
2022-09-25T02:48:10.345Z,5.93
2022-09-25T02:53:24.032Z,5.22
2022-09-25T02:58:29.675Z,5.88
2022-09-25T03:03:34.773Z,5.22
2022-09-25T03:08:39.488Z,5.50
2022-09-25T03:13:42.689Z,5.93
2022-09-25T03:18:46.766Z,5.50
2022-09-25T03:23:56.884Z,5.63
2022-09-25T03:29:02.069Z,6.32
2022-09-25T03:34:06.115Z,7.13
2022-09-25T03:39:10.686Z,6.15
2022-09-25T03:44:13.581Z,6.18
2022-09-25T03:49:17.554Z,5.50
2022-09-25T03:54:20.261Z,5.80
2022-09-25T03:59:22.896Z,5.75
2022-09-25T04:04:26.886Z,6.03
2022-09-25T04:09:29.545Z,5.80
2022-09-25T04:14:32.114Z,5.57
2022-09-25T04:19:36.017Z,5.95
2022-09-25T04:24:50.660Z,5.95
2022-09-25T04:29:53.264Z,6.13
2022-09-25T04:34:58.277Z,6.25
2022-09-25T04:40:00.908Z,6.03
2022-09-25T04:45:04.025Z,6.00
2022-09-25T04:50:09.057Z,6.57
2022-09-25T04:55:11.891Z,6.72
2022-09-25T05:00:17.089Z,6.63
2022-09-25T05:05:21.285Z,6.68
2022-09-25T05:10:27.224Z,6.57
2022-09-25T05:15:31.643Z,6.47
2022-09-25T05:20:36.280Z,6.95
2022-09-25T05:25:39.212Z,7.57
2022-09-25T05:30:43.547Z,7.40
2022-09-25T05:35:48.522Z,8.43
2022-09-25T05:40:51.424Z,7.85
2022-09-25T05:45:55.482Z,7.97
2022-09-25T05:50:59.831Z,7.50
2022-09-25T05:56:03.785Z,7.15
2022-09-25T06:01:07.532Z,7.10
2022-09-25T06:06:11.470Z,6.57
2022-09-25T06:11:14.081Z,7.38
2022-09-25T06:16:19.327Z,8.00
2022-09-25T06:21:23.918Z,8.15
2022-09-25T06:26:29.636Z,8.30
2022-09-25T06:31:32.720Z,7.85
2022-09-25T06:36:36.832Z,7.72
2022-09-25T06:41:40.142Z,8.07
2022-09-25T06:46:45.081Z,8.10
2022-09-25T06:51:50.947Z,8.40
2022-09-25T06:56:53.621Z,9.82
2022-09-25T07:02:16.649Z,9.70
2022-09-25T07:07:21.104Z,9.50
2022-09-25T07:12:23.953Z,8.82
2022-09-25T07:17:28.791Z,9.43
2022-09-25T07:22:36.156Z,10.48
2022-09-25T07:27:38.959Z,10.50
2022-09-25T07:32:44.843Z,10.25
2022-09-25T07:37:48.816Z,10.23
2022-09-25T07:42:52.041Z,11.80
2022-09-25T07:47:57.110Z,10.70
2022-09-25T07:53:01.501Z,11.93
2022-09-25T07:58:04.337Z,11.52
2022-09-25T08:03:07.307Z,10.80
2022-09-25T08:08:11.305Z,12.45
2022-09-25T08:13:14.270Z,10.18
2022-09-25T08:18:16.862Z,10.70
2022-09-25T08:23:20.805Z,11.30
2022-09-25T08:28:23.489Z,10.88
2022-09-25T08:33:26.414Z,16.67
2022-09-25T08:38:32.699Z,11.38
2022-09-25T08:43:37.610Z,11.23
2022-09-25T08:49:02.183Z,10.30
2022-09-25T08:54:06.654Z,11.30
2022-09-25T08:59:21.276Z,13.52
2022-09-25T09:04:27.757Z,12.10
2022-09-25T09:09:35.950Z,10.82
2022-09-25T09:14:43.862Z,10.93
2022-09-25T09:19:48.342Z,12.55
2022-09-25T09:24:56.412Z,12.85
2022-09-25T09:30:11.230Z,12.73
2022-09-25T09:35:23.969Z,12.35
2022-09-25T09:40:47.138Z,11.55
2022-09-25T09:45:53.990Z,11.93
2022-09-25T09:51:00.982Z,11.98
2022-09-25T09:56:09.341Z,11.45
2022-09-25T10:01:36.695Z,12.25
2022-09-25T10:06:39.301Z,11.48
2022-09-25T10:11:45.570Z,12.20
2022-09-25T10:16:48.684Z,12.48
2022-09-25T10:21:54.350Z,13.40
2022-09-25T10:27:13.033Z,12.98
2022-09-25T10:32:17.252Z,11.55
2022-09-25T10:37:22.210Z,10.75
2022-09-25T10:42:47.324Z,10.32
2022-09-25T10:48:08.465Z,10.77
2022-09-25T10:53:28.195Z,10.60
2022-09-25T10:58:36.846Z,10.27
2022-09-25T11:03:58.134Z,9.80
2022-09-25T11:09:11.603Z,9.57
2022-09-25T11:14:28.646Z,9.27
2022-09-25T11:19:33.087Z,9.43
2022-09-25T11:24:50.624Z,7.95
2022-09-25T11:30:03.086Z,7.20
2022-09-25T11:35:19.728Z,6.32
2022-09-25T11:40:49.883Z,6.28
2022-09-25T11:45:59.613Z,5.15
2022-09-25T11:51:09.537Z,5.38
2022-09-25T11:56:23.876Z,6.78
2022-09-25T12:01:34.290Z,8.40
2022-09-25T12:06:49.414Z,7.05
2022-09-25T12:11:56.341Z,6.78
2022-09-25T12:17:04.673Z,7.32
2022-09-25T12:22:11.470Z,6.75
2022-09-25T12:27:26.363Z,5.68
2022-09-25T12:32:40.691Z,6.50
2022-09-25T12:37:46.610Z,9.82
2022-09-25T12:42:54.902Z,6.50
2022-09-25T12:48:12.950Z,6.25
2022-09-25T12:53:30.898Z,6.82
2022-09-25T12:58:45.652Z,5.90
2022-09-25T13:03:54.563Z,6.22
2022-09-25T13:09:03.288Z,6.05
2022-09-25T13:14:09.354Z,5.20
2022-09-25T13:19:26.463Z,5.30
2022-09-25T13:24:29.299Z,5.65
2022-09-25T13:29:38.773Z,6.10
2022-09-25T13:34:43.219Z,6.25
2022-09-25T13:40:04.916Z,6.18
2022-09-25T13:45:36.222Z,6.40
2022-09-25T13:50:51.706Z,6.07
2022-09-25T13:56:25.772Z,5.50
2022-09-25T14:01:35.386Z,4.70
2022-09-25T14:06:41.581Z,5.35
2022-09-25T14:11:52.620Z,6.30
2022-09-25T14:16:58.382Z,6.30
2022-09-25T14:22:04.284Z,6.00
2022-09-25T14:27:19.835Z,4.82
2022-09-25T14:32:54.563Z,4.22
2022-09-25T14:38:15.114Z,5.00
2022-09-25T14:43:40.242Z,4.30
2022-09-25T14:48:46.060Z,4.53
2022-09-25T14:53:53.967Z,4.28
2022-09-25T14:58:59.028Z,4.95
2022-09-25T15:04:04.335Z,3.78
2022-09-25T15:09:29.059Z,3.80
2022-09-25T15:14:31.647Z,3.40
2022-09-25T15:19:36.458Z,3.92
2022-09-25T15:24:41.588Z,3.67
2022-09-25T15:29:46.374Z,4.28
2022-09-25T15:34:49.145Z,3.92
2022-09-25T15:39:54.873Z,3.97
2022-09-25T15:44:58.387Z,3.35
2022-09-25T15:50:01.331Z,3.25
2022-09-25T15:55:08.174Z,3.47
2022-09-25T16:00:36.194Z,3.42
2022-09-25T16:05:45.380Z,3.53
2022-09-25T16:10:50.404Z,3.65
2022-09-25T16:15:54.465Z,3.55
2022-09-25T16:20:59.378Z,3.28
2022-09-25T16:26:03.701Z,2.90
2022-09-25T16:31:08.314Z,3.00
2022-09-25T16:36:17.682Z,2.72
2022-09-25T16:41:23.094Z,3.80
2022-09-25T16:46:25.806Z,3.80
2022-09-25T16:51:30.006Z,3.45
2022-09-25T16:56:48.075Z,3.17
2022-09-25T17:01:53.153Z,3.85
2022-09-25T17:06:57.968Z,3.70
2022-09-25T17:12:07.271Z,3.33
2022-09-25T17:17:10.522Z,3.15
2022-09-25T17:22:13.278Z,3.47
2022-09-25T17:27:17.499Z,3.20
2022-09-25T17:32:20.135Z,3.50
2022-09-25T17:37:22.882Z,2.72
2022-09-25T17:42:27.698Z,2.95
2022-09-25T17:47:31.854Z,3.97
2022-09-25T17:52:34.421Z,3.35
2022-09-25T17:57:38.361Z,3.50
2022-09-25T18:02:41.037Z,3.63
2022-09-25T18:07:43.881Z,4.00
2022-09-25T18:12:48.247Z,3.50
2022-09-25T18:17:53.356Z,3.60
2022-09-25T18:22:56.542Z,3.60
2022-09-25T18:28:00.572Z,3.85
2022-09-25T18:33:03.200Z,3.78
2022-09-25T18:38:05.961Z,3.30
2022-09-25T18:43:10.661Z,4.20
2022-09-25T18:48:13.459Z,3.67
2022-09-25T18:53:16.568Z,3.60
2022-09-25T18:58:20.817Z,3.40
2022-09-25T19:03:23.609Z,3.70
2022-09-25T19:08:26.559Z,4.35
2022-09-25T19:13:30.586Z,3.60
2022-09-25T19:18:33.281Z,3.63
2022-09-25T19:23:36.292Z,4.32
2022-09-25T19:28:41.033Z,4.05
2022-09-25T19:33:44.099Z,4.50
2022-09-25T19:38:47.358Z,5.07
2022-09-25T19:43:53.811Z,4.43
2022-09-25T19:48:56.772Z,4.28
2022-09-25T19:53:59.556Z,5.50
2022-09-25T19:59:06.961Z,5.45
2022-09-25T20:04:17.174Z,4.82
2022-09-25T20:09:21.148Z,4.90
2022-09-25T20:14:26.236Z,4.13
2022-09-25T20:19:28.810Z,4.93
2022-09-25T20:24:31.365Z,5.20
2022-09-25T20:29:36.711Z,5.35
2022-09-25T20:34:39.356Z,4.82
2022-09-25T20:39:42.091Z,5.18
2022-09-25T20:44:46.216Z,4.85
2022-09-25T20:49:49.228Z,4.70
2022-09-25T20:54:51.850Z,5.45
2022-09-25T20:59:56.808Z,5.65
2022-09-25T21:04:59.738Z,5.63
2022-09-25T21:10:02.421Z,5.88
2022-09-25T21:15:07.580Z,6.47
2022-09-25T21:20:11.187Z,5.60
2022-09-25T21:25:14.319Z,5.68
2022-09-25T21:30:18.613Z,6.28
2022-09-25T21:35:21.704Z,5.75
2022-09-25T21:40:24.396Z,6.57
2022-09-25T21:45:28.475Z,5.95
2022-09-25T21:50:33.536Z,6.60
2022-09-25T21:55:36.507Z,5.20
2022-09-25T22:00:40.472Z,5.85
2022-09-25T22:05:43.092Z,6.00
2022-09-25T22:10:55.830Z,6.32
2022-09-25T22:16:05.094Z,6.68
2022-09-25T22:21:07.734Z,7.15
2022-09-25T22:26:11.152Z,7.75
2022-09-25T22:31:16.788Z,6.35
2022-09-25T22:36:19.632Z,5.80
2022-09-25T22:41:22.554Z,6.78
2022-09-25T22:46:26.790Z,6.32
2022-09-25T22:51:29.393Z,7.32
2022-09-25T22:56:33.154Z,6.75
2022-09-25T23:01:43.059Z,6.93
2022-09-25T23:06:45.794Z,6.97
2022-09-25T23:11:48.500Z,6.53
2022-09-25T23:16:54.080Z,7.78
2022-09-25T23:21:56.727Z,6.93
2022-09-25T23:26:59.323Z,7.13
2022-09-25T23:32:07.920Z,5.95
2022-09-25T23:37:10.670Z,6.82
2022-09-25T23:42:13.244Z,7.78
2022-09-25T23:47:17.303Z,6.75
2022-09-25T23:52:19.955Z,6.75
2022-09-25T23:57:22.574Z,6.80
